Georgetown, TX (78633)

10:03 AM CDT on August 30, 2016 (GMT -0500)
Serenada West | | Change Station

Elev 790 ft 30.69 °N, 97.70 °W | Updated 1 second ago

Mostly Cloudy
Mostly Cloudy
78.3 °F
Feels Like 81 °F
N
1.1
Wind Variable Wind from NW
Gusts 5.6 mph

Today
High -- | Low -- °F
--% Chance of Precip.
Yesterday
High -- | Low -- °F
Precip. -- in
Pressure 30.05 in
Visibility 10.0 miles
Clouds Few 800 ft
Mostly Cloudy 6500 ft
Heat Index 81 °F
Dew Point 74 °F
Humidity 87%
Rainfall 0.00 in
Snow Depth Not available.
7:06 AM 7:55 PM
Waning Crescent, 3% visible
METAR KGTU 301453Z 01008KT 10SM FEW008 BKN065 25/21 A3005
Pressure 30.05 in
Visibility 10.0 miles
Clouds Few 800 ft
Mostly Cloudy 6500 ft
Heat Index 81 °F
Dew Point 74 °F
Humidity 87%
Rainfall 0.00 in
Snow Depth Not available.
7:06 AM 7:55 PM
Waning Crescent, 3% visible
METAR KGTU 301453Z 01008KT 10SM FEW008 BKN065 25/21 A3005

10-Day Weather Forecast

Almanac

Astronomy

Aug. 30, 2016 Rise Set
Actual Time
Civil Twilight
Nautical Twilight
Astronomical Twilight
Moon
Length of Visible Light
Length of Day
Tomorrow will be .
, % of the Moon is Illuminated

Today's Extremes

State Highs State Lows

Community

WunderPhotos

Upload Photos

1,935,853 photos uploaded!

WunderBlog® & News

Nearby

Air Quality

  Air Quality AQ Index Pollutant
Not available.

Snow Depth

Station Depth Elevation

Earthquake Activity

City Distance Mag. Time & Date
Minimum magnitude displayed is 2.5.

Coastal Water Temperatures

Place Temperature

Stations

Nearby Weather Stations

Station Location Temp. Windchill Dew Point Humidity Wind Precip. Elev Updated Type
                   

Watches & Warnings

There are currently no watches in effect.